createdAt,value
2018-01-15T00:00:41.647Z,9.13
2018-01-15T00:03:08.197Z,10.23
2018-01-15T00:05:35.673Z,10.73
2018-01-15T00:08:05.296Z,10.30
2018-01-15T00:10:31.907Z,9.70
2018-01-15T00:12:58.486Z,10.20
2018-01-15T00:15:25.108Z,10.27
2018-01-15T00:17:52.071Z,9.82
2018-01-15T00:20:18.859Z,9.27
2018-01-15T00:22:45.449Z,10.02
2018-01-15T00:25:12.090Z,10.07
2018-01-15T00:27:38.631Z,10.55
2018-01-15T00:30:05.301Z,10.10
2018-01-15T00:32:31.916Z,9.70
2018-01-15T00:35:00.007Z,10.32
2018-01-15T00:37:27.408Z,9.90
2018-01-15T00:39:53.976Z,10.02
2018-01-15T00:42:20.558Z,9.88
2018-01-15T00:44:47.136Z,9.18
2018-01-15T00:47:15.802Z,9.50
2018-01-15T00:49:42.989Z,8.75
2018-01-15T00:52:10.401Z,10.10
2018-01-15T00:54:36.918Z,10.18
2018-01-15T00:57:03.662Z,11.63
2018-01-15T00:59:33.393Z,10.52
2018-01-15T01:02:00.342Z,10.75
2018-01-15T01:04:28.034Z,9.60
2018-01-15T01:06:54.823Z,9.95
2018-01-15T01:09:21.452Z,10.93
2018-01-15T01:11:48.304Z,9.77
2018-01-15T01:14:15.063Z,9.30
2018-01-15T01:16:41.614Z,10.00
2018-01-15T01:19:08.375Z,10.52
2018-01-15T01:21:35.037Z,9.35
2018-01-15T01:24:01.647Z,9.90
2018-01-15T01:26:28.229Z,10.75
2018-01-15T01:28:55.374Z,10.07
2018-01-15T01:31:21.928Z,9.70
2018-01-15T01:33:48.541Z,9.60
2018-01-15T01:36:18.060Z,10.73
2018-01-15T01:38:45.242Z,10.80
2018-01-15T01:41:11.552Z,10.00
2018-01-15T01:43:37.863Z,10.15
2018-01-15T01:46:05.042Z,9.63
2018-01-15T01:48:31.584Z,10.30
2018-01-15T01:50:58.265Z,10.05
2018-01-15T01:53:25.815Z,10.50
2018-01-15T01:55:52.544Z,9.73
2018-01-15T01:58:19.085Z,9.57
2018-01-15T02:00:46.627Z,11.05
2018-01-15T02:03:13.475Z,10.90
2018-01-15T02:05:40.229Z,11.18
2018-01-15T02:08:06.707Z,10.48
2018-01-15T02:10:33.260Z,9.05
2018-01-15T02:12:59.880Z,10.35
2018-01-15T02:15:26.251Z,11.57
2018-01-15T02:17:52.640Z,11.30
2018-01-15T02:20:19.123Z,10.75
2018-01-15T02:22:45.924Z,11.07
2018-01-15T02:25:12.454Z,10.75
2018-01-15T02:27:38.994Z,10.60
2018-01-15T02:30:06.168Z,10.30
2018-01-15T02:32:32.687Z,10.43
2018-01-15T02:34:59.106Z,9.90
2018-01-15T02:37:25.517Z,11.18
2018-01-15T02:39:51.989Z,11.07
2018-01-15T02:42:24.289Z,9.93
2018-01-15T02:44:51.030Z,12.10
2018-01-15T02:47:17.460Z,11.05
2018-01-15T02:49:43.761Z,11.32
2018-01-15T02:52:09.981Z,10.85
2018-01-15T02:54:36.329Z,9.30
2018-01-15T02:57:02.486Z,10.38
2018-01-15T02:59:29.273Z,11.43
2018-01-15T03:01:55.401Z,10.10
2018-01-15T03:04:21.560Z,10.95
2018-01-15T03:06:47.711Z,10.90
2018-01-15T03:09:13.964Z,11.32
2018-01-15T03:11:40.193Z,9.07
2018-01-15T03:14:06.298Z,10.98
2018-01-15T03:16:32.488Z,10.32
2018-01-15T03:18:58.650Z,10.88
2018-01-15T03:21:24.788Z,9.88
2018-01-15T03:23:50.897Z,10.93
2018-01-15T03:26:17.050Z,10.55
2018-01-15T03:28:43.230Z,10.65
2018-01-15T03:31:09.367Z,10.50
2018-01-15T03:33:35.522Z,8.98
2018-01-15T03:36:01.703Z,10.20
2018-01-15T03:38:27.923Z,10.55
2018-01-15T03:40:54.915Z,10.15
2018-01-15T03:43:21.105Z,11.30
2018-01-15T03:45:47.292Z,10.68
2018-01-15T03:48:13.497Z,11.48
2018-01-15T03:50:39.614Z,9.70
2018-01-15T03:53:05.758Z,10.65
2018-01-15T03:55:32.808Z,9.68
2018-01-15T03:57:59.271Z,10.10
2018-01-15T04:00:25.919Z,9.73
2018-01-15T04:02:52.397Z,10.60
2018-01-15T04:05:18.722Z,9.95
2018-01-15T04:07:45.120Z,10.75
2018-01-15T04:10:11.350Z,11.32
2018-01-15T04:12:37.521Z,10.40
2018-01-15T04:15:04.263Z,10.65
2018-01-15T04:17:30.662Z,9.00
2018-01-15T04:19:57.616Z,9.52
2018-01-15T04:22:23.994Z,10.77
2018-01-15T04:24:50.454Z,9.85
2018-01-15T04:27:17.104Z,11.15
2018-01-15T04:29:43.736Z,10.20
2018-01-15T04:32:10.021Z,10.55
2018-01-15T04:34:36.204Z,10.70
2018-01-15T04:37:02.439Z,9.20
2018-01-15T04:39:29.638Z,10.25
2018-01-15T04:41:57.638Z,9.93
2018-01-15T04:44:23.782Z,10.73
2018-01-15T04:46:51.009Z,9.63
2018-01-15T04:49:17.293Z,11.25
2018-01-15T04:51:44.221Z,10.88
2018-01-15T04:54:10.499Z,11.18
2018-01-15T04:56:37.583Z,11.10
2018-01-15T04:59:03.904Z,10.25
2018-01-15T05:01:30.976Z,10.43
2018-01-15T05:03:58.144Z,11.32
2018-01-15T05:06:24.613Z,10.43
2018-01-15T05:08:51.047Z,11.02
2018-01-15T05:11:17.357Z,10.98
2018-01-15T05:13:43.674Z,10.93
2018-01-15T05:16:09.870Z,10.60
2018-01-15T05:18:35.999Z,11.75
2018-01-15T05:21:02.887Z,10.63
2018-01-15T05:23:29.263Z,10.35
2018-01-15T05:25:55.458Z,11.18
2018-01-15T05:28:21.801Z,11.15
2018-01-15T05:30:50.111Z,10.45
2018-01-15T05:33:17.431Z,11.07
2018-01-15T05:35:44.494Z,11.55
2018-01-15T05:38:10.832Z,11.07
2018-01-15T05:40:37.038Z,10.60
2018-01-15T05:43:05.172Z,10.55
2018-01-15T05:45:31.606Z,10.27
2018-01-15T05:47:57.867Z,10.18
2018-01-15T05:50:24.062Z,9.75
2018-01-15T05:52:52.157Z,11.30
2018-01-15T05:55:19.668Z,11.25
2018-01-15T05:57:46.377Z,10.68
2018-01-15T06:00:14.027Z,10.20
2018-01-15T06:02:40.318Z,12.37
2018-01-15T06:05:06.583Z,10.18
2018-01-15T06:07:32.810Z,9.52
2018-01-15T06:10:00.127Z,10.65
2018-01-15T06:12:26.355Z,11.27
2018-01-15T06:14:52.465Z,10.77
2018-01-15T06:17:19.010Z,10.63
2018-01-15T06:19:45.397Z,11.45
2018-01-15T06:22:11.797Z,11.48
2018-01-15T06:24:38.234Z,11.12
2018-01-15T06:27:04.725Z,10.15
2018-01-15T06:29:31.743Z,9.93
2018-01-15T06:31:58.275Z,10.65
2018-01-15T06:34:32.557Z,10.40
2018-01-15T06:36:58.777Z,10.10
2018-01-15T06:39:24.988Z,10.57
2018-01-15T06:41:51.129Z,11.40
2018-01-15T06:44:17.335Z,10.93
2018-01-15T06:46:43.489Z,10.02
2018-01-15T06:49:10.002Z,12.10
2018-01-15T06:51:36.140Z,11.75
2018-01-15T06:54:02.345Z,10.38
2018-01-15T06:56:28.576Z,11.82
2018-01-15T06:58:55.765Z,10.98
2018-01-15T07:01:22.172Z,10.55
2018-01-15T07:03:49.067Z,11.00
2018-01-15T07:06:15.537Z,11.12
2018-01-15T07:08:41.759Z,10.27
2018-01-15T07:11:07.907Z,10.43
2018-01-15T07:13:34.020Z,10.07
2018-01-15T07:16:00.264Z,11.40
2018-01-15T07:18:26.389Z,10.45
2018-01-15T07:20:53.285Z,11.40
2018-01-15T07:23:19.777Z,10.50
2018-01-15T07:25:45.993Z,10.32
2018-01-15T07:28:12.384Z,11.57
2018-01-15T07:30:38.795Z,10.82
2018-01-15T07:33:05.011Z,10.88
2018-01-15T07:35:32.504Z,10.68
2018-01-15T07:37:58.794Z,11.70
2018-01-15T07:40:25.157Z,10.23
2018-01-15T07:42:51.427Z,11.60
2018-01-15T07:45:21.597Z,10.85
2018-01-15T07:47:47.966Z,10.98
2018-01-15T07:50:14.278Z,10.95
2018-01-15T07:52:41.195Z,10.25
2018-01-15T07:55:07.907Z,10.00
2018-01-15T07:57:34.027Z,10.90
2018-01-15T08:00:00.929Z,10.10
2018-01-15T08:02:27.199Z,11.32
2018-01-15T08:04:53.526Z,11.05
2018-01-15T08:07:22.185Z,11.90
2018-01-15T08:09:48.665Z,9.27
2018-01-15T08:12:14.996Z,10.82
2018-01-15T08:14:45.387Z,9.93
2018-01-15T08:17:12.044Z,11.88
2018-01-15T08:19:38.298Z,8.57
2018-01-15T08:22:04.538Z,10.40
2018-01-15T08:24:31.518Z,10.95
2018-01-15T08:26:57.759Z,10.82
2018-01-15T08:29:24.056Z,9.85
2018-01-15T08:31:50.340Z,9.90
2018-01-15T08:34:16.740Z,9.38
2018-01-15T08:36:43.833Z,9.85
2018-01-15T08:39:10.041Z,9.35
2018-01-15T08:41:36.182Z,9.65
2018-01-15T08:44:02.516Z,11.07
2018-01-15T08:46:29.053Z,9.85
2018-01-15T08:48:55.401Z,10.50
2018-01-15T08:51:22.184Z,9.85
2018-01-15T08:53:48.653Z,10.43
2018-01-15T08:56:15.097Z,9.38
2018-01-15T08:58:41.587Z,10.70
2018-01-15T09:01:07.840Z,10.07
2018-01-15T09:03:34.109Z,9.48
2018-01-15T09:06:00.306Z,8.55
2018-01-15T09:08:26.608Z,9.60
2018-01-15T09:10:52.794Z,9.10
2018-01-15T09:13:19.041Z,9.82
2018-01-15T09:15:45.982Z,9.45
2018-01-15T09:18:12.278Z,9.30
2018-01-15T09:20:39.572Z,9.57
2018-01-15T09:23:05.737Z,10.65
2018-01-15T09:25:32.122Z,10.32
2018-01-15T09:27:58.426Z,9.60
2018-01-15T09:30:29.815Z,8.60
2018-01-15T09:32:56.090Z,8.90
2018-01-15T09:35:22.457Z,10.02
2018-01-15T09:37:48.713Z,8.68
2018-01-15T09:40:15.015Z,7.50
2018-01-15T09:42:41.349Z,9.52
2018-01-15T09:45:18.675Z,9.50
2018-01-15T09:47:46.057Z,8.20
2018-01-15T09:50:13.080Z,10.95
2018-01-15T09:52:39.810Z,9.40
2018-01-15T09:55:06.073Z,9.43
2018-01-15T09:57:32.306Z,9.90
2018-01-15T10:00:00.478Z,10.43
2018-01-15T10:02:29.524Z,8.95
2018-01-15T10:04:56.130Z,8.15
2018-01-15T10:07:22.440Z,9.48
2018-01-15T10:09:48.684Z,9.10
2018-01-15T10:12:15.590Z,9.13
2018-01-15T10:14:48.561Z,9.13
2018-01-15T10:17:14.760Z,8.15
2018-01-15T10:19:41.170Z,8.57
2018-01-15T10:22:07.306Z,9.10
2018-01-15T10:24:33.543Z,9.48
2018-01-15T10:27:00.847Z,9.68
2018-01-15T10:29:29.969Z,8.70
2018-01-15T10:31:56.601Z,9.00
2018-01-15T10:34:23.079Z,8.75
2018-01-15T10:36:49.898Z,7.65
2018-01-15T10:39:16.219Z,7.90
2018-01-15T10:41:42.988Z,7.87
2018-01-15T10:47:19.550Z,8.70
2018-01-15T10:49:46.242Z,9.00
2018-01-15T10:52:12.735Z,9.00
2018-01-15T10:54:40.306Z,8.32
2018-01-15T10:57:06.612Z,7.37
2018-01-15T11:02:04.278Z,9.85
2018-01-15T11:04:30.786Z,8.93
2018-01-15T11:06:57.205Z,8.48
2018-01-15T11:09:23.593Z,8.82
2018-01-15T11:12:05.478Z,9.07
2018-01-15T11:20:31.926Z,7.82
2018-01-15T11:22:58.349Z,8.85
2018-01-15T11:45:47.092Z,5.75
2018-01-15T11:54:14.829Z,7.37
2018-01-15T11:56:42.050Z,6.68
2018-01-15T11:59:08.428Z,6.60
2018-01-15T12:01:41.223Z,6.80
2018-01-15T12:04:07.657Z,7.18
2018-01-15T12:06:34.762Z,6.60
2018-01-15T12:09:02.002Z,6.90
2018-01-15T12:11:28.401Z,6.55
2018-01-15T12:13:54.824Z,7.95
2018-01-15T12:16:21.835Z,7.10
2018-01-15T12:18:50.087Z,7.70
2018-01-15T12:21:16.625Z,7.18
2018-01-15T12:23:42.945Z,8.73
2018-01-15T12:26:09.246Z,7.10
2018-01-15T12:28:36.295Z,5.85
2018-01-15T12:31:06.598Z,7.95
2018-01-15T12:33:39.841Z,8.38
2018-01-15T12:36:06.234Z,9.05
2018-01-15T12:38:32.968Z,9.02
2018-01-15T12:41:01.069Z,9.10
2018-01-15T12:43:27.492Z,9.70
2018-01-15T12:45:53.850Z,7.90
2018-01-15T12:48:20.540Z,8.15
2018-01-15T12:50:52.261Z,8.90
2018-01-15T12:53:18.675Z,9.75
2018-01-15T12:55:45.533Z,8.30
2018-01-15T12:58:12.447Z,7.70
2018-01-15T13:00:38.906Z,8.68
2018-01-15T13:03:06.645Z,9.82
2018-01-15T13:05:46.672Z,9.43
2018-01-15T13:08:25.776Z,9.18
2018-01-15T13:10:52.194Z,9.05
2018-01-15T13:13:18.639Z,8.73
2018-01-15T13:15:50.500Z,7.87
2018-01-15T13:18:16.681Z,9.23
2018-01-15T13:20:43.119Z,9.00
2018-01-15T13:23:10.520Z,9.35
2018-01-15T13:25:36.903Z,8.68
2018-01-15T13:28:03.600Z,8.82
2018-01-15T13:30:32.090Z,9.63
2018-01-15T13:33:00.231Z,9.05
2018-01-15T13:35:26.805Z,7.85
2018-01-15T13:37:56.116Z,8.15
2018-01-15T13:40:22.703Z,9.00
2018-01-15T13:42:49.134Z,7.60
2018-01-15T13:45:16.259Z,6.85
2018-01-15T13:47:42.625Z,7.37
2018-01-15T13:50:10.444Z,8.85
2018-01-15T13:52:59.041Z,7.07
2018-01-15T14:04:25.949Z,8.30
2018-01-15T14:10:07.645Z,8.38
2018-01-15T14:15:54.895Z,8.23
2018-01-15T14:18:22.455Z,8.27
2018-01-15T14:20:59.763Z,8.05
2018-01-15T14:23:28.796Z,8.98
2018-01-15T14:28:52.529Z,8.15
2018-01-15T14:31:24.246Z,7.45
2018-01-15T14:36:25.926Z,10.02
2018-01-15T14:38:53.333Z,6.72
2018-01-15T14:41:20.050Z,9.00
2018-01-15T14:43:49.279Z,5.57
2018-01-15T14:46:17.318Z,8.18
2018-01-15T14:48:47.849Z,6.82
2018-01-15T14:51:14.331Z,7.18
2018-01-15T14:53:40.795Z,7.45
2018-01-15T14:59:04.780Z,7.05
2018-01-15T15:04:13.357Z,7.45
2018-01-15T15:06:40.507Z,6.95
2018-01-15T15:12:17.787Z,6.93
2018-01-15T15:14:52.968Z,6.75
2018-01-15T15:17:20.311Z,6.57
2018-01-15T15:22:28.961Z,5.87
2018-01-15T15:24:58.518Z,6.80
2018-01-15T15:27:25.082Z,5.93
2018-01-15T15:29:53.219Z,5.60
2018-01-15T15:32:20.949Z,7.20
2018-01-15T15:34:47.914Z,5.20
2018-01-15T15:37:18.492Z,6.30
2018-01-15T15:42:55.704Z,5.95
2018-01-15T15:45:22.297Z,6.35
2018-01-15T15:47:48.877Z,5.22
2018-01-15T15:50:21.125Z,5.68
2018-01-15T15:52:48.297Z,4.55
2018-01-15T15:55:25.114Z,5.30
2018-01-15T15:57:58.414Z,5.40
2018-01-15T16:00:25.682Z,5.05
2018-01-15T16:03:01.849Z,4.75
2018-01-15T16:05:27.992Z,5.87
2018-01-15T16:07:54.182Z,5.30
2018-01-15T16:10:22.459Z,5.55
2018-01-15T16:12:48.819Z,5.47
2018-01-15T16:15:15.272Z,5.40
2018-01-15T16:17:53.606Z,4.50
2018-01-15T16:20:20.345Z,3.45
2018-01-15T16:22:56.859Z,3.65
2018-01-15T16:25:23.489Z,4.53
2018-01-15T16:27:50.760Z,4.10
2018-01-15T16:30:17.904Z,3.90
2018-01-15T16:32:57.628Z,3.67
2018-01-15T16:35:24.198Z,3.70
2018-01-15T16:37:57.642Z,4.28
2018-01-15T16:40:26.655Z,3.55
2018-01-15T16:42:53.718Z,2.90
2018-01-15T16:45:21.146Z,3.72
2018-01-15T16:47:48.172Z,4.18
2018-01-15T16:50:20.486Z,3.72
2018-01-15T16:52:49.151Z,4.72
2018-01-15T16:55:17.433Z,3.80
2018-01-15T16:57:44.989Z,3.90
2018-01-15T17:00:15.147Z,4.00
2018-01-15T17:02:41.924Z,4.18
2018-01-15T17:05:08.339Z,4.90
2018-01-15T17:10:06.789Z,4.78
2018-01-15T17:12:33.804Z,5.05
2018-01-15T17:15:00.256Z,5.57
2018-01-15T17:17:26.681Z,6.07
2018-01-15T17:19:53.117Z,5.25
2018-01-15T17:25:01.631Z,5.55
2018-01-15T17:27:28.259Z,4.78
2018-01-15T17:29:55.118Z,5.43
2018-01-15T17:32:22.283Z,4.57
2018-01-15T17:34:56.313Z,4.95
2018-01-15T17:37:31.322Z,4.28
2018-01-15T17:39:58.791Z,2.55
2018-01-15T17:42:26.592Z,4.30
2018-01-15T17:44:55.561Z,3.35
2018-01-15T17:47:35.376Z,4.12
2018-01-15T17:50:04.826Z,3.42
2018-01-15T17:52:37.819Z,3.10
2018-01-15T17:55:04.197Z,3.12
2018-01-15T17:57:35.416Z,2.87
2018-01-15T18:00:04.450Z,2.67
2018-01-15T18:02:30.980Z,3.47
2018-01-15T18:05:17.550Z,2.53
2018-01-15T18:07:49.312Z,2.33
2018-01-15T18:10:23.992Z,2.45
2018-01-15T18:12:54.610Z,2.50
2018-01-15T18:15:21.364Z,2.90
2018-01-15T18:17:51.923Z,2.75
2018-01-15T18:20:21.912Z,2.62
2018-01-15T18:22:52.213Z,2.83
2018-01-15T18:25:23.280Z,1.98
2018-01-15T18:27:53.484Z,3.40
2018-01-15T18:30:28.344Z,2.50
2018-01-15T18:32:56.328Z,1.87
2018-01-15T18:35:34.855Z,1.95
2018-01-15T18:38:05.056Z,2.90
2018-01-15T18:40:35.288Z,2.03
2018-01-15T18:43:11.651Z,2.70
2018-01-15T18:51:41.667Z,1.85
2018-01-15T18:57:22.672Z,1.87
2018-01-15T18:59:50.774Z,1.90
2018-01-15T19:05:27.795Z,1.55
2018-01-15T19:07:54.486Z,1.20
2018-01-15T19:13:35.706Z,1.40
2018-01-15T19:16:02.176Z,2.22
2018-01-15T19:18:28.409Z,1.10
2018-01-15T19:20:54.720Z,1.12
2018-01-15T19:23:31.462Z,1.08
2018-01-15T19:25:59.828Z,1.12
2018-01-15T19:28:27.208Z,0.75
2018-01-15T19:30:53.529Z,0.70
2018-01-15T19:33:21.464Z,1.10
2018-01-15T19:36:05.723Z,0.90
2018-01-15T19:38:32.541Z,0.60
2018-01-15T19:40:59.133Z,1.10
2018-01-15T19:43:34.155Z,1.10
2018-01-15T19:46:07.073Z,0.80
2018-01-15T19:48:39.268Z,1.08
2018-01-15T19:54:23.419Z,0.80
2018-01-15T20:00:11.647Z,0.90
2018-01-15T20:02:44.047Z,0.73
2018-01-15T20:05:23.869Z,0.80
2018-01-15T20:10:42.046Z,1.02
2018-01-15T20:13:08.913Z,0.60
2018-01-15T20:19:00.746Z,1.10
2018-01-15T20:21:27.018Z,1.12
2018-01-15T20:23:53.390Z,0.80
2018-01-15T20:26:19.593Z,0.88
2018-01-15T20:31:52.049Z,0.70
2018-01-15T20:34:27.368Z,0.80
2018-01-15T20:36:56.839Z,0.90
2018-01-15T20:39:23.363Z,0.88
2018-01-15T20:41:50.071Z,1.12
2018-01-15T20:50:54.438Z,1.15
2018-01-15T20:53:21.170Z,1.10
2018-01-15T20:55:58.330Z,1.83
2018-01-15T20:58:25.277Z,1.10
2018-01-15T21:01:00.967Z,1.10
2018-01-15T21:03:31.083Z,0.70
2018-01-15T21:05:57.268Z,0.82
2018-01-15T21:08:30.444Z,0.50
2018-01-15T21:10:57.126Z,0.73
2018-01-15T21:13:31.835Z,7.32
2018-01-15T21:15:58.354Z,0.60
2018-01-15T21:18:24.874Z,0.80
2018-01-15T21:20:51.069Z,1.00
2018-01-15T21:23:17.215Z,0.90
2018-01-15T21:25:43.874Z,0.70
2018-01-15T21:28:27.629Z,0.70
2018-01-15T21:30:55.230Z,1.37
2018-01-15T21:33:21.910Z,1.00
2018-01-15T21:35:48.584Z,0.85
2018-01-15T21:41:14.615Z,0.70
2018-01-15T21:43:49.853Z,0.93
2018-01-15T21:46:16.308Z,0.77
2018-01-15T21:48:42.752Z,0.80
2018-01-15T21:51:10.130Z,0.85
2018-01-15T21:53:37.587Z,0.60
2018-01-15T21:56:04.087Z,1.00
2018-01-15T21:58:30.633Z,0.77
2018-01-15T22:00:57.112Z,0.98
2018-01-15T22:06:33.542Z,1.10
2018-01-15T22:08:59.653Z,1.60
2018-01-15T22:11:26.170Z,2.40
2018-01-15T22:13:59.067Z,2.20
2018-01-15T22:16:25.521Z,1.90
2018-01-15T22:18:51.756Z,2.35
2018-01-15T22:21:18.552Z,2.37
2018-01-15T22:23:45.023Z,2.65
2018-01-15T22:29:11.184Z,1.80
2018-01-15T22:31:37.429Z,2.72
2018-01-15T22:34:07.511Z,4.07
2018-01-15T22:36:34.035Z,2.33
2018-01-15T22:45:18.259Z,3.20
2018-01-15T22:48:03.398Z,2.62
2018-01-15T22:50:34.441Z,2.95
2018-01-15T22:53:06.547Z,4.00
2018-01-15T22:55:35.410Z,2.62
2018-01-15T22:58:05.148Z,2.90
2018-01-15T23:00:36.029Z,3.35
2018-01-15T23:06:06.570Z,3.35
2018-01-15T23:08:39.212Z,3.97
2018-01-15T23:11:06.002Z,4.28
2018-01-15T23:13:35.490Z,4.28
2018-01-15T23:16:03.042Z,4.18
2018-01-15T23:18:35.091Z,3.97
2018-01-15T23:21:05.600Z,3.55
2018-01-15T23:23:33.816Z,3.90
2018-01-15T23:26:02.065Z,4.20
2018-01-15T23:28:36.103Z,3.33
2018-01-15T23:31:04.914Z,3.22
2018-01-15T23:33:35.766Z,2.97
2018-01-15T23:36:05.351Z,3.05
2018-01-15T23:38:35.039Z,3.05
2018-01-15T23:41:05.909Z,2.90
2018-01-15T23:43:35.586Z,2.90
2018-01-15T23:46:11.290Z,2.50
2018-01-15T23:48:38.929Z,2.85
2018-01-15T23:51:06.741Z,2.90
2018-01-15T23:53:35.898Z,2.30
2018-01-15T23:59:01.001Z,2.45
